Time;durP1;ratioP1;P1;durP2;ratioP2;P2;SDS_P1;SDS_P2;PMS_P1;PMS_P2;Temp;Humidity;BMP_temperature;BMP_pressure;BME280_temperature;BME280_humidity;BME280_pressure;Samples;Min_cycle;Max_cycle;Signal;HPM_P1;HPM_P2
2023/10/10 00:01:01;;;;;;;14.30;6.47;;;;;;;;;;4972650;28;20416;-65
2023/10/10 00:03:31;;;;;;;17.73;7.03;;;;;;;;;;4972178;28;20421;-65
2023/10/10 00:05:58;;;;;;;13.50;5.73;;;;;;;;;;4972271;28;20426;-65
2023/10/10 00:08:36;;;;;;;12.37;6.80;;;;;;;;;;4972271;28;20423;-65
2023/10/10 00:11:14;;;;;;;25.10;6.93;;;;;;;;;;4973985;28;20420;-65
2023/10/10 00:13:46;;;;;;;16.53;6.70;;;;;;;;;;4975598;28;20534;-65
2023/10/10 00:19:08;;;;;;;15.13;6.63;;;;;;;;;;4976141;28;20442;-65
2023/10/10 00:21:34;;;;;;;6.40;5.60;;;;;;;;;;4975612;28;20455;-65
2023/10/10 00:24:03;;;;;;;13.63;6.53;;;;;;;;;;4975679;28;20408;-65
2023/10/10 00:26:29;;;;;;;11.93;6.23;;;;;;;;;;4975960;28;20416;-64
2023/10/10 00:28:56;;;;;;;15.83;6.37;;;;;;;;;;4975737;28;20429;-64
2023/10/10 00:31:22;;;;;;;12.20;6.70;;;;;;;;;;4975540;28;20889;-64
2023/10/10 00:33:51;;;;;;;12.87;7.50;;;;;;;;;;4975604;28;20522;-64
2023/10/10 00:36:21;;;;;;;12.20;7.20;;;;;;;;;;4975795;28;20873;-65
2023/10/10 00:38:51;;;;;;;15.07;7.30;;;;;;;;;;4974510;28;20442;-64
2023/10/10 00:41:17;;;;;;;10.90;6.73;;;;;;;;;;4975314;28;20942;-65
2023/10/10 00:43:43;;;;;;;17.10;6.37;;;;;;;;;;4975492;28;20500;-65
2023/10/10 00:46:11;;;;;;;14.63;7.37;;;;;;;;;;4975505;28;20415;-65
2023/10/10 00:48:38;;;;;;;17.10;6.70;;;;;;;;;;4975102;28;20461;-65
2023/10/10 00:51:11;;;;;;;13.23;6.80;;;;;;;;;;4975529;28;20427;-65
2023/10/10 00:53:44;;;;;;;10.13;6.50;;;;;;;;;;4975483;28;20475;-65
2023/10/10 00:56:14;;;;;;;9.13;6.07;;;;;;;;;;4973913;28;20443;-65
2023/10/10 00:58:39;;;;;;;9.57;5.97;;;;;;;;;;4975093;28;20496;-65
2023/10/10 01:01:10;;;;;;;8.17;5.53;;;;;;;;;;4975058;28;20506;-65
2023/10/10 01:03:39;;;;;;;9.80;6.17;;;;;;;;;;4975362;28;20443;-65
2023/10/10 01:06:14;;;;;;;16.50;6.00;;;;;;;;;;4975056;28;20480;-65
2023/10/10 01:08:58;;;;;;;10.13;5.40;;;;;;;;;;4975488;28;20469;-65
2023/10/10 01:11:24;;;;;;;9.70;5.30;;;;;;;;;;4974695;28;20431;-65
2023/10/10 01:13:52;;;;;;;11.40;6.07;;;;;;;;;;4974856;28;20440;-65
2023/10/10 01:16:24;;;;;;;10.40;5.70;;;;;;;;;;4974553;28;20507;-65
2023/10/10 01:18:57;;;;;;;7.80;5.43;;;;;;;;;;4974557;28;20419;-65
2023/10/10 01:21:33;;;;;;;8.17;5.30;;;;;;;;;;4974777;28;20431;-65
2023/10/10 01:24:23;;;;;;;6.10;5.40;;;;;;;;;;4974136;28;20410;-64
2023/10/10 01:26:50;;;;;;;11.27;5.07;;;;;;;;;;4974029;28;20434;-64
2023/10/10 01:29:27;;;;;;;9.50;6.00;;;;;;;;;;4974581;28;20898;-64
2023/10/10 01:31:58;;;;;;;12.53;5.10;;;;;;;;;;4974560;28;20585;-64
2023/10/10 01:34:31;;;;;;;10.80;5.40;;;;;;;;;;4974355;28;20421;-64
2023/10/10 01:37:29;;;;;;;9.83;5.70;;;;;;;;;;4974293;28;20426;-64
2023/10/10 01:40:16;;;;;;;13.10;5.77;;;;;;;;;;4973616;28;20431;-64
2023/10/10 01:42:53;;;;;;;10.17;5.17;;;;;;;;;;4974272;28;20455;-64
2023/10/10 01:45:26;;;;;;;7.10;5.10;;;;;;;;;;4973137;28;20500;-64
2023/10/10 01:48:02;;;;;;;9.00;5.73;;;;;;;;;;4974037;28;20431;-64
2023/10/10 01:50:30;;;;;;;11.40;6.20;;;;;;;;;;4974139;28;20545;-64
2023/10/10 01:52:56;;;;;;;10.13;5.90;;;;;;;;;;4974296;28;20976;-64
2023/10/10 01:55:26;;;;;;;9.73;5.13;;;;;;;;;;4973924;28;20434;-65
2023/10/10 01:57:53;;;;;;;12.07;5.70;;;;;;;;;;4974192;28;20434;-65
2023/10/10 02:02:50;;;;;;;11.27;5.73;;;;;;;;;;4973959;28;20438;-65
2023/10/10 02:05:45;;;;;;;16.17;6.13;;;;;;;;;;4974090;28;20698;-65
2023/10/10 02:08:17;;;;;;;15.73;5.60;;;;;;;;;;4974072;28;20462;-64
2023/10/10 02:10:46;;;;;;;13.10;5.67;;;;;;;;;;4973656;28;20513;-64
2023/10/10 02:13:12;;;;;;;12.93;6.20;;;;;;;;;;4973714;28;20497;-64
2023/10/10 02:15:39;;;;;;;10.00;6.07;;;;;;;;;;4973869;28;20469;-64
2023/10/10 02:18:12;;;;;;;15.70;5.67;;;;;;;;;;4973135;28;20434;-64
2023/10/10 02:26:02;;;;;;;15.37;5.70;;;;;;;;;;4973937;28;20876;-65
2023/10/10 02:28:49;;;;;;;9.83;5.60;;;;;;;;;;4972324;28;21851;-65
2023/10/10 02:31:16;;;;;;;6.13;4.70;;;;;;;;;;4974074;28;20433;-65
2023/10/10 02:33:48;;;;;;;8.10;5.10;;;;;;;;;;4973315;28;20561;-65
2023/10/10 02:36:30;;;;;;;7.10;4.43;;;;;;;;;;4973798;28;20498;-65
2023/10/10 02:38:59;;;;;;;13.80;5.43;;;;;;;;;;4973454;28;20492;-65
2023/10/10 02:41:48;;;;;;;10.60;4.97;;;;;;;;;;4973759;28;20414;-64
2023/10/10 02:44:26;;;;;;;7.80;5.60;;;;;;;;;;4973278;28;20812;-64
2023/10/10 02:46:54;;;;;;;9.20;4.40;;;;;;;;;;4973345;28;20442;-64
2023/10/10 02:51:56;;;;;;;13.87;5.50;;;;;;;;;;4973404;28;20462;-64
2023/10/10 02:56:56;;;;;;;4.80;4.40;;;;;;;;;;4973516;28;20879;-64
2023/10/10 02:59:31;;;;;;;14.57;4.43;;;;;;;;;;4973494;28;20948;-64
2023/10/10 03:01:59;;;;;;;6.53;4.80;;;;;;;;;;4973077;28;20828;-65
2023/10/10 03:07:19;;;;;;;15.40;4.80;;;;;;;;;;4973139;28;20429;-65
2023/10/10 03:12:29;;;;;;;9.77;4.23;;;;;;;;;;4973126;28;20466;-65
2023/10/10 03:14:55;;;;;;;15.77;4.97;;;;;;;;;;4972940;28;20421;-65
2023/10/10 03:17:43;;;;;;;7.00;4.60;;;;;;;;;;4973216;28;20421;-65
2023/10/10 03:20:25;;;;;;;9.77;5.20;;;;;;;;;;4972860;28;20909;-65
2023/10/10 03:25:51;;;;;;;3.80;3.50;;;;;;;;;;4972995;28;20426;-65
2023/10/10 05:25:37;;;;;;;26.13;14.00;;;;;;;;;;4974628;28;20509;-65
2023/10/10 05:28:03;;;;;;;14.33;5.67;;;;;;;;;;4975179;28;20411;-65
2023/10/10 05:30:39;;;;;;;14.17;6.37;;;;;;;;;;4974491;28;20419;-64
2023/10/10 05:33:07;;;;;;;8.90;5.43;;;;;;;;;;4974517;28;20470;-65
2023/10/10 05:35:36;;;;;;;13.80;5.23;;;;;;;;;;4974127;28;20442;-65
2023/10/10 05:38:04;;;;;;;14.20;5.60;;;;;;;;;;4974575;28;20402;-65
2023/10/10 05:40:33;;;;;;;17.40;5.30;;;;;;;;;;4974166;28;20557;-65
2023/10/10 05:42:59;;;;;;;20.90;6.13;;;;;;;;;;4974423;28;20414;-65
2023/10/10 05:45:25;;;;;;;14.93;6.13;;;;;;;;;;4974173;28;20510;-64
2023/10/10 05:47:51;;;;;;;23.53;7.40;;;;;;;;;;4974233;28;20445;-65
2023/10/10 05:50:18;;;;;;;25.63;10.90;;;;;;;;;;4974495;28;20493;-64
2023/10/10 05:52:48;;;;;;;12.27;7.60;;;;;;;;;;4974427;28;20963;-64
2023/10/10 05:55:15;;;;;;;26.70;8.77;;;;;;;;;;4972951;28;20776;-65
2023/10/10 05:57:41;;;;;;;16.37;7.70;;;;;;;;;;4973141;28;20442;-65
2023/10/10 06:00:12;;;;;;;19.33;8.97;;;;;;;;;;4974140;28;20435;-65
2023/10/10 06:02:38;;;;;;;22.83;8.63;;;;;;;;;;4973565;28;20449;-64
2023/10/10 06:05:05;;;;;;;21.23;8.77;;;;;;;;;;4973818;28;20426;-64
2023/10/10 06:07:33;;;;;;;20.90;10.03;;;;;;;;;;4973998;28;20442;-65
2023/10/10 06:10:05;;;;;;;20.53;9.10;;;;;;;;;;4973483;28;20421;-65
2023/10/10 06:12:33;;;;;;;17.73;7.87;;;;;;;;;;4974074;28;20977;-65
2023/10/10 06:15:05;;;;;;;16.43;8.20;;;;;;;;;;4973870;28;20425;-64
2023/10/10 06:17:33;;;;;;;13.27;7.83;;;;;;;;;;4973822;28;20411;-64
2023/10/10 06:20:00;;;;;;;15.40;8.07;;;;;;;;;;4973690;28;20414;-64
2023/10/10 06:22:31;;;;;;;20.20;8.80;;;;;;;;;;4973641;28;20419;-64
2023/10/10 06:24:58;;;;;;;19.40;8.60;;;;;;;;;;4973529;28;20422;-64
2023/10/10 06:27:28;;;;;;;13.60;7.47;;;;;;;;;;4973959;28;20405;-64
2023/10/10 06:29:55;;;;;;;14.20;7.20;;;;;;;;;;4973195;28;20940;-65
2023/10/10 06:32:21;;;;;;;15.60;6.40;;;;;;;;;;4973962;28;20953;-65
2023/10/10 06:35:04;;;;;;;9.20;6.10;;;;;;;;;;4973315;28;20429;-65
2023/10/10 06:37:35;;;;;;;12.40;6.30;;;;;;;;;;4973705;28;20410;-64
2023/10/10 06:40:07;;;;;;;15.80;6.80;;;;;;;;;;4973748;28;20395;-64
2023/10/10 06:42:34;;;;;;;18.23;6.43;;;;;;;;;;4973420;28;20426;-64
2023/10/10 06:45:07;;;;;;;13.67;6.93;;;;;;;;;;4973966;28;20410;-64
2023/10/10 06:47:33;;;;;;;18.20;7.13;;;;;;;;;;4973441;28;20476;-64
2023/10/10 06:50:00;;;;;;;12.30;6.17;;;;;;;;;;4973102;28;20454;-64
2023/10/10 06:52:27;;;;;;;15.93;6.73;;;;;;;;;;4972259;28;20462;-64
2023/10/10 06:54:56;;;;;;;19.60;7.00;;;;;;;;;;4973149;28;20461;-64
2023/10/10 06:57:43;;;;;;;22.03;7.47;;;;;;;;;;4973727;28;20533;-64
2023/10/10 07:02:47;;;;;;;23.93;11.50;;;;;;;;;;4973360;28;20926;-64
2023/10/10 07:05:15;;;;;;;30.73;12.80;;;;;;;;;;4973583;28;20472;-63
2023/10/10 07:07:42;;;;;;;22.57;10.93;;;;;;;;;;4973699;28;20462;-63
2023/10/10 07:10:24;;;;;;;24.53;11.10;;;;;;;;;;4973152;28;20422;-63
2023/10/10 07:12:54;;;;;;;19.57;8.80;;;;;;;;;;4973259;28;20474;-63
2023/10/10 07:15:21;;;;;;;28.30;18.07;;;;;;;;;;4973304;28;20478;-63
2023/10/10 07:17:49;;;;;;;24.37;9.17;;;;;;;;;;4973371;28;20436;-63
2023/10/10 07:22:42;;;;;;;17.63;7.10;;;;;;;;;;4977391;28;20499;-63
2023/10/10 07:25:24;;;;;;;16.60;6.50;;;;;;;;;;4977399;28;20415;-63
2023/10/10 07:27:50;;;;;;;16.23;7.13;;;;;;;;;;4977339;28;20814;-63
2023/10/10 07:30:16;;;;;;;17.73;6.50;;;;;;;;;;4977445;28;20436;-63
2023/10/10 07:32:43;;;;;;;17.60;6.80;;;;;;;;;;4977114;28;20487;-63
2023/10/10 07:35:14;;;;;;;21.33;7.47;;;;;;;;;;4976883;28;20871;-63
2023/10/10 07:37:41;;;;;;;9.53;6.00;;;;;;;;;;4977330;28;20558;-63
2023/10/10 07:42:58;;;;;;;12.83;6.60;;;;;;;;;;4977522;28;20908;-63
2023/10/10 07:45:28;;;;;;;16.97;6.83;;;;;;;;;;4977096;28;20927;-63
2023/10/10 07:50:26;;;;;;;18.33;8.07;;;;;;;;;;4977372;28;20512;-64
2023/10/10 07:52:56;;;;;;;22.03;8.53;;;;;;;;;;4975622;28;21004;-63
2023/10/10 07:55:22;;;;;;;23.20;7.83;;;;;;;;;;4977250;28;20440;-63
2023/10/10 07:58:06;;;;;;;26.13;7.30;;;;;;;;;;4976693;28;20434;-63
2023/10/10 08:00:39;;;;;;;20.57;7.63;;;;;;;;;;4976416;28;20468;-63
2023/10/10 08:03:19;;;;;;;18.77;7.50;;;;;;;;;;4976468;28;20437;-63
2023/10/10 08:05:47;;;;;;;26.50;7.03;;;;;;;;;;4976732;28;20413;-64
2023/10/10 08:08:15;;;;;;;22.60;7.53;;;;;;;;;;4976623;28;20822;-63
2023/10/10 08:10:43;;;;;;;23.40;6.70;;;;;;;;;;4976167;28;20438;-63
2023/10/10 08:13:12;;;;;;;15.93;7.07;;;;;;;;;;4976348;28;20478;-63
2023/10/10 08:18:41;;;;;;;28.53;7.03;;;;;;;;;;4975970;28;20445;-63
2023/10/10 08:23:32;;;;;;;19.07;5.90;;;;;;;;;;4976205;28;20781;-63
2023/10/10 08:25:58;;;;;;;26.57;6.57;;;;;;;;;;4975960;28;20411;-63
2023/10/10 08:28:24;;;;;;;25.03;6.67;;;;;;;;;;4975380;28;20434;-64
2023/10/10 08:30:51;;;;;;;19.60;6.47;;;;;;;;;;4976471;28;20420;-64
2023/10/10 08:33:17;;;;;;;20.20;6.23;;;;;;;;;;4975761;28;20475;-63
2023/10/10 08:35:46;;;;;;;16.97;6.00;;;;;;;;;;4974866;28;20428;-63
2023/10/10 08:38:19;;;;;;;21.60;6.10;;;;;;;;;;4976050;28;20455;-64
2023/10/10 08:40:48;;;;;;;25.63;6.40;;;;;;;;;;4976267;28;20417;-64
2023/10/10 08:43:14;;;;;;;16.33;5.60;;;;;;;;;;4975660;28;20778;-64
2023/10/10 08:45:54;;;;;;;20.53;7.13;;;;;;;;;;4975636;28;20861;-64
2023/10/10 08:48:26;;;;;;;37.07;7.57;;;;;;;;;;4974344;28;20454;-64
2023/10/10 08:50:55;;;;;;;19.47;7.00;;;;;;;;;;4976038;28;20514;-63
2023/10/10 08:53:22;;;;;;;14.57;6.37;;;;;;;;;;4975457;28;20477;-64
2023/10/10 08:55:56;;;;;;;18.20;6.20;;;;;;;;;;4975734;28;20468;-64
2023/10/10 08:58:23;;;;;;;19.53;6.60;;;;;;;;;;4975365;28;20506;-64
2023/10/10 09:00:49;;;;;;;57.80;32.00;;;;;;;;;;4975192;28;20449;-63
2023/10/10 09:03:15;;;;;;;25.57;10.13;;;;;;;;;;4975554;28;20442;-63
2023/10/10 09:05:41;;;;;;;23.93;6.97;;;;;;;;;;4974564;28;20422;-63
2023/10/10 09:08:17;;;;;;;23.17;6.00;;;;;;;;;;4975464;28;20492;-63
2023/10/10 09:10:47;;;;;;;24.93;7.20;;;;;;;;;;4975156;28;20416;-63
2023/10/10 09:13:14;;;;;;;21.37;6.57;;;;;;;;;;4975051;28;20470;-63
2023/10/10 09:15:54;;;;;;;20.57;7.13;;;;;;;;;;4975700;28;20476;-61
2023/10/10 09:18:23;;;;;;;24.33;5.63;;;;;;;;;;4975628;28;20406;-64
2023/10/10 09:20:53;;;;;;;20.57;6.77;;;;;;;;;;4975784;28;20410;-62
2023/10/10 09:23:38;;;;;;;22.00;5.60;;;;;;;;;;4974158;28;20419;-63
2023/10/10 09:26:19;;;;;;;33.63;7.03;;;;;;;;;;4975498;28;20411;-63
2023/10/10 09:28:46;;;;;;;53.63;38.10;;;;;;;;;;4975276;28;20484;-64
2023/10/10 09:31:26;;;;;;;32.20;14.60;;;;;;;;;;4978073;28;20478;-64
2023/10/10 09:33:54;;;;;;;15.00;5.80;;;;;;;;;;4982803;28;20472;-64
2023/10/10 09:36:26;;;;;;;22.23;6.30;;;;;;;;;;4983513;28;20451;-64
2023/10/10 09:39:26;;;;;;;20.23;6.33;;;;;;;;;;4984438;28;20434;-64
2023/10/10 09:49:29;;;;;;;21.47;5.33;;;;;;;;;;4981462;28;20411;-64
2023/10/10 09:54:44;;;;;;;28.37;7.07;;;;;;;;;;4994128;28;20464;-66
2023/10/10 09:57:11;;;;;;;22.57;5.80;;;;;;;;;;4994466;28;20441;-65
2023/10/10 09:59:37;;;;;;;14.80;5.43;;;;;;;;;;4994544;28;20544;-64
2023/10/10 10:02:05;;;;;;;13.90;5.83;;;;;;;;;;4994156;28;20532;-64
2023/10/10 10:04:38;;;;;;;18.47;5.83;;;;;;;;;;4994083;28;20822;-63
2023/10/10 10:07:14;;;;;;;12.60;5.87;;;;;;;;;;4993676;28;20398;-64
2023/10/10 10:09:45;;;;;;;21.97;6.07;;;;;;;;;;4993902;28;20504;-64
2023/10/10 10:12:19;;;;;;;11.20;5.53;;;;;;;;;;4993792;28;20457;-64
2023/10/10 10:14:59;;;;;;;15.73;5.17;;;;;;;;;;4993723;28;20932;-64
2023/10/10 10:17:46;;;;;;;22.10;5.93;;;;;;;;;;4993986;28;20418;-62
2023/10/10 10:20:21;;;;;;;17.23;5.70;;;;;;;;;;4993711;28;20975;-61
2023/10/10 10:22:53;;;;;;;139.10;103.17;;;;;;;;;;4993892;28;20918;-61
2023/10/10 10:25:25;;;;;;;121.63;82.33;;;;;;;;;;4992443;28;20438;-62
2023/10/10 10:28:00;;;;;;;67.23;45.53;;;;;;;;;;4993596;28;20437;-62
2023/10/10 10:32:59;;;;;;;200.73;145.03;;;;;;;;;;4993291;28;20505;-62
2023/10/10 10:35:36;;;;;;;15.20;5.37;;;;;;;;;;4993344;28;20544;-62
2023/10/10 10:38:06;;;;;;;19.87;6.43;;;;;;;;;;4993461;28;20418;-64
2023/10/10 10:43:05;;;;;;;11.80;5.10;;;;;;;;;;4993171;28;20410;-64
2023/10/10 10:45:41;;;;;;;15.13;6.20;;;;;;;;;;4993097;28;20437;-64
2023/10/10 10:48:29;;;;;;;11.90;5.30;;;;;;;;;;4993171;28;20414;-64
2023/10/10 10:51:22;;;;;;;18.63;5.97;;;;;;;;;;4954543;29;20447;-64
2023/10/10 10:53:50;;;;;;;15.57;8.50;;;;;;;;;;4954725;28;20491;-64
2023/10/10 11:01:24;;;;;;;17.53;5.67;;;;;;;;;;4954813;29;20404;-64
2023/10/10 11:03:53;;;;;;;22.37;6.70;;;;;;;;;;4954129;28;20419;-63
2023/10/10 11:06:20;;;;;;;12.27;5.63;;;;;;;;;;4954186;29;20443;-63
2023/10/10 11:14:10;;;;;;;16.83;5.40;;;;;;;;;;4954530;29;20566;-62
2023/10/10 11:16:46;;;;;;;22.37;6.00;;;;;;;;;;4954140;28;20455;-62
2023/10/10 11:21:53;;;;;;;12.27;4.90;;;;;;;;;;4954273;29;20470;-64
2023/10/10 11:24:26;;;;;;;16.07;5.50;;;;;;;;;;4954152;28;20414;-65
2023/10/10 11:27:14;;;;;;;15.07;5.00;;;;;;;;;;4954115;29;20446;-63
2023/10/10 11:29:45;;;;;;;21.67;5.87;;;;;;;;;;4953691;28;20470;-62
2023/10/10 11:32:13;;;;;;;15.43;5.70;;;;;;;;;;4954058;28;20958;-65
2023/10/10 11:34:42;;;;;;;14.13;4.60;;;;;;;;;;4954139;28;20416;-63
2023/10/10 11:37:13;;;;;;;22.43;5.70;;;;;;;;;;4954291;28;20392;-62
2023/10/10 11:39:47;;;;;;;17.77;5.80;;;;;;;;;;4953354;28;20840;-62
2023/10/10 11:42:26;;;;;;;13.33;5.00;;;;;;;;;;4952519;29;20420;-62
2023/10/10 11:44:53;;;;;;;14.90;5.30;;;;;;;;;;4968313;28;20482;-64
2023/10/10 11:47:26;;;;;;;18.10;5.60;;;;;;;;;;4953721;28;20436;-63
2023/10/10 11:50:01;;;;;;;25.27;5.60;;;;;;;;;;4953893;28;20795;-63
2023/10/10 11:52:28;;;;;;;20.27;5.80;;;;;;;;;;4953878;28;20868;-63
2023/10/10 11:55:00;;;;;;;17.70;5.37;;;;;;;;;;4953227;29;20423;-64
2023/10/10 11:57:30;;;;;;;21.53;5.30;;;;;;;;;;4968300;28;20921;-63
2023/10/10 11:59:59;;;;;;;16.27;5.77;;;;;;;;;;4953439;29;20438;-64
2023/10/10 12:02:39;;;;;;;18.40;6.10;;;;;;;;;;4953869;29;20415;-63
2023/10/10 12:05:35;;;;;;;17.03;5.53;;;;;;;;;;4953565;28;20443;-63
2023/10/10 12:08:01;;;;;;;17.43;5.30;;;;;;;;;;4956857;28;20865;-64
2023/10/10 12:10:47;;;;;;;16.73;5.10;;;;;;;;;;4957282;28;20478;-64
2023/10/10 12:13:25;;;;;;;17.47;5.40;;;;;;;;;;4956978;28;20969;-63
2023/10/10 12:15:51;;;;;;;19.57;6.00;;;;;;;;;;4957316;28;20418;-62
2023/10/10 12:18:17;;;;;;;14.70;5.73;;;;;;;;;;4956705;28;20416;-63
2023/10/10 12:20:46;;;;;;;20.23;5.10;;;;;;;;;;4972008;28;20454;-62
2023/10/10 12:23:12;;;;;;;13.00;4.80;;;;;;;;;;4956873;29;20440;-63
2023/10/10 12:25:41;;;;;;;11.93;5.60;;;;;;;;;;4957018;29;20501;-63
2023/10/10 12:28:09;;;;;;;15.70;5.80;;;;;;;;;;4956929;28;20462;-63
2023/10/10 12:30:40;;;;;;;17.30;5.77;;;;;;;;;;4959280;28;20454;-63
2023/10/10 12:33:06;;;;;;;17.70;5.47;;;;;;;;;;4957922;28;20469;-62
2023/10/10 12:35:32;;;;;;;22.83;5.27;;;;;;;;;;4971694;28;20517;-63
2023/10/10 12:38:01;;;;;;;18.33;6.20;;;;;;;;;;4956600;28;20411;-62
2023/10/10 12:40:33;;;;;;;19.10;6.27;;;;;;;;;;4956469;28;20863;-63
2023/10/10 12:42:59;;;;;;;17.60;5.67;;;;;;;;;;4971094;28;20923;-62
2023/10/10 12:45:25;;;;;;;19.03;5.60;;;;;;;;;;4956757;29;20423;-63
2023/10/10 12:47:51;;;;;;;23.93;6.73;;;;;;;;;;4956590;29;20436;-62
2023/10/10 12:50:17;;;;;;;29.73;6.37;;;;;;;;;;4956548;29;20419;-63
2023/10/10 12:52:46;;;;;;;15.53;5.47;;;;;;;;;;4971483;28;20549;-62
2023/10/10 12:55:12;;;;;;;20.93;5.50;;;;;;;;;;4971684;28;20451;-63
2023/10/10 12:57:39;;;;;;;23.90;6.00;;;;;;;;;;4956295;29;20807;-63
2023/10/10 13:00:24;;;;;;;19.73;6.20;;;;;;;;;;4955747;29;20934;-64
2023/10/10 13:02:53;;;;;;;18.87;6.57;;;;;;;;;;4956110;29;20424;-62
2023/10/10 13:05:26;;;;;;;25.17;6.20;;;;;;;;;;4956261;28;20435;-62
2023/10/10 13:07:53;;;;;;;20.47;6.10;;;;;;;;;;4956330;28;20435;-62
2023/10/10 13:10:19;;;;;;;32.53;6.40;;;;;;;;;;4956013;29;20934;-62
2023/10/10 13:12:51;;;;;;;11.33;5.67;;;;;;;;;;4956222;29;20467;-61
2023/10/10 13:15:27;;;;;;;25.20;6.40;;;;;;;;;;4956272;28;20412;-62
2023/10/10 13:18:11;;;;;;;20.13;5.40;;;;;;;;;;4954976;28;20419;-62
2023/10/10 13:20:41;;;;;;;23.13;9.00;;;;;;;;;;4955858;28;20502;-61
2023/10/10 13:23:07;;;;;;;15.80;7.53;;;;;;;;;;4956423;28;20828;-61
2023/10/10 13:25:37;;;;;;;15.63;5.37;;;;;;;;;;4956114;29;20478;-62
2023/10/10 13:28:09;;;;;;;12.53;5.23;;;;;;;;;;4955597;28;20931;-62
2023/10/10 13:30:38;;;;;;;16.83;6.40;;;;;;;;;;4955515;28;20428;-62
2023/10/10 13:33:07;;;;;;;18.63;5.70;;;;;;;;;;4955920;28;20615;-62
2023/10/10 13:35:37;;;;;;;21.63;5.60;;;;;;;;;;4955453;28;20415;-62
2023/10/10 13:38:04;;;;;;;20.33;5.97;;;;;;;;;;4955653;28;20910;-62
2023/10/10 13:40:37;;;;;;;19.47;5.37;;;;;;;;;;4955192;29;20422;-62
2023/10/10 13:43:09;;;;;;;12.13;6.10;;;;;;;;;;4956003;28;20403;-62
2023/10/10 13:45:38;;;;;;;15.07;5.90;;;;;;;;;;4955593;29;20423;-62
2023/10/10 13:48:08;;;;;;;12.90;5.03;;;;;;;;;;4955837;28;20415;-62
2023/10/10 13:50:44;;;;;;;22.10;5.90;;;;;;;;;;4955255;28;20427;-62
2023/10/10 13:53:14;;;;;;;15.23;6.10;;;;;;;;;;4954609;28;20482;-62
2023/10/10 13:55:43;;;;;;;18.30;6.53;;;;;;;;;;4954476;29;20416;-62
2023/10/10 13:58:11;;;;;;;25.33;5.67;;;;;;;;;;4954962;29;20443;-61
2023/10/10 14:03:35;;;;;;;20.40;5.60;;;;;;;;;;4945242;28;20448;-62
2023/10/10 14:06:04;;;;;;;13.10;5.87;;;;;;;;;;4954865;28;20515;-62
2023/10/10 14:08:33;;;;;;;10.80;4.80;;;;;;;;;;4955104;29;20886;-62
2023/10/10 14:11:00;;;;;;;15.13;5.70;;;;;;;;;;4954715;29;20450;-62
2023/10/10 14:13:29;;;;;;;16.60;5.70;;;;;;;;;;4954511;29;20554;-62
2023/10/10 14:15:56;;;;;;;22.80;6.90;;;;;;;;;;4954490;29;20985;-62
2023/10/10 14:18:30;;;;;;;12.20;5.33;;;;;;;;;;4955090;29;20432;-62
2023/10/10 14:21:00;;;;;;;19.93;6.13;;;;;;;;;;4955063;28;20791;-61
2023/10/10 14:23:30;;;;;;;13.33;5.57;;;;;;;;;;4955151;28;20415;-62
2023/10/10 14:26:16;;;;;;;17.67;5.77;;;;;;;;;;4954620;28;20442;-62
2023/10/10 14:28:50;;;;;;;12.43;5.63;;;;;;;;;;4954683;28;20459;-62
2023/10/10 14:31:21;;;;;;;16.60;6.13;;;;;;;;;;4954496;28;20420;-62
2023/10/10 14:33:47;;;;;;;16.27;5.90;;;;;;;;;;4954586;28;20483;-62
2023/10/10 14:36:13;;;;;;;23.43;5.70;;;;;;;;;;4954297;29;20934;-61
2023/10/10 14:38:44;;;;;;;14.63;6.20;;;;;;;;;;4954498;29;20424;-62
2023/10/10 14:41:16;;;;;;;13.77;5.40;;;;;;;;;;4954221;28;20411;-64
2023/10/10 14:43:47;;;;;;;20.93;6.77;;;;;;;;;;4954351;28;20455;-62
2023/10/10 14:46:14;;;;;;;18.20;6.60;;;;;;;;;;4969131;28;20539;-64
2023/10/10 14:48:41;;;;;;;13.80;6.10;;;;;;;;;;4969383;28;22188;-62
2023/10/10 14:51:07;;;;;;;11.40;5.60;;;;;;;;;;4954670;28;20519;-64
2023/10/10 14:53:34;;;;;;;16.73;5.90;;;;;;;;;;4954486;28;20475;-62
2023/10/10 14:56:05;;;;;;;11.70;5.10;;;;;;;;;;4954030;28;20490;-63
2023/10/10 14:58:35;;;;;;;20.17;5.67;;;;;;;;;;4954120;28;20450;-64
2023/10/10 15:01:02;;;;;;;15.23;5.97;;;;;;;;;;4954300;28;20415;-63
2023/10/10 15:03:30;;;;;;;18.47;5.53;;;;;;;;;;4954207;28;20435;-63
2023/10/10 15:06:06;;;;;;;11.77;5.17;;;;;;;;;;4954170;28;20415;-63
2023/10/10 15:08:34;;;;;;;16.53;5.30;;;;;;;;;;4954533;28;20835;-63
2023/10/10 15:11:00;;;;;;;9.40;5.00;;;;;;;;;;4954171;29;20434;-64
2023/10/10 15:13:26;;;;;;;21.93;9.30;;;;;;;;;;4954505;29;20479;-62
2023/10/10 15:15:52;;;;;;;17.80;6.73;;;;;;;;;;4954264;28;20411;-63
2023/10/10 15:18:19;;;;;;;21.57;5.33;;;;;;;;;;4954328;29;20802;-63
2023/10/10 15:20:48;;;;;;;13.60;5.73;;;;;;;;;;4954689;29;20756;-63
2023/10/10 15:23:18;;;;;;;20.23;6.47;;;;;;;;;;4954201;28;20423;-61
2023/10/10 15:25:44;;;;;;;13.60;5.37;;;;;;;;;;4954211;28;20768;-61
2023/10/10 15:28:10;;;;;;;11.90;5.63;;;;;;;;;;4953423;29;20436;-60
2023/10/10 15:30:41;;;;;;;20.50;5.07;;;;;;;;;;4953510;28;20706;-60
2023/10/10 15:33:07;;;;;;;12.40;5.53;;;;;;;;;;4953253;28;20475;-62
2023/10/10 15:35:39;;;;;;;14.70;5.97;;;;;;;;;;4953853;29;20406;-61
2023/10/10 15:38:05;;;;;;;16.63;5.13;;;;;;;;;;4953789;28;20440;-60
2023/10/10 15:40:33;;;;;;;16.57;7.00;;;;;;;;;;4954023;28;20842;-60
2023/10/10 15:42:59;;;;;;;18.83;5.33;;;;;;;;;;4957250;29;20443;-59
2023/10/10 15:45:37;;;;;;;14.40;5.97;;;;;;;;;;4957882;29;20426;-59
2023/10/10 15:48:03;;;;;;;23.47;5.90;;;;;;;;;;4957719;28;20446;-60
2023/10/10 15:50:31;;;;;;;16.20;6.00;;;;;;;;;;4957702;29;20420;-60
2023/10/10 15:53:00;;;;;;;12.53;5.30;;;;;;;;;;4957548;28;20489;-59
2023/10/10 15:55:25;;;;;;;11.33;5.53;;;;;;;;;;4957740;28;20415;-60
2023/10/10 15:57:55;;;;;;;13.60;5.30;;;;;;;;;;4957541;29;20437;-60
2023/10/10 16:00:21;;;;;;;17.30;5.00;;;;;;;;;;4957718;29;20399;-60
2023/10/10 16:02:52;;;;;;;15.40;5.60;;;;;;;;;;4957482;29;20450;-59
2023/10/10 16:05:18;;;;;;;16.00;5.10;;;;;;;;;;4957248;28;20985;-62
2023/10/10 16:07:46;;;;;;;14.63;5.53;;;;;;;;;;4957522;29;20664;-61
2023/10/10 16:10:12;;;;;;;24.80;4.80;;;;;;;;;;4972290;28;20453;-60
2023/10/10 16:12:42;;;;;;;12.67;5.30;;;;;;;;;;4957453;29;20461;-60
2023/10/10 16:15:09;;;;;;;12.93;4.73;;;;;;;;;;4957463;28;20407;-61
2023/10/10 16:17:35;;;;;;;12.77;5.23;;;;;;;;;;4957413;29;20546;-61
2023/10/10 16:20:05;;;;;;;28.03;15.67;;;;;;;;;;4957252;29;20850;-60
2023/10/10 16:22:35;;;;;;;33.93;13.13;;;;;;;;;;4957075;29;20439;-60
2023/10/10 16:25:01;;;;;;;16.17;7.70;;;;;;;;;;4957186;29;20422;-60
2023/10/10 16:27:27;;;;;;;16.10;6.50;;;;;;;;;;4957363;29;20447;-61
2023/10/10 16:29:55;;;;;;;17.03;6.27;;;;;;;;;;4957494;29;20419;-61
2023/10/10 16:32:21;;;;;;;14.13;6.37;;;;;;;;;;4957137;28;20578;-62
2023/10/10 16:34:47;;;;;;;21.93;6.13;;;;;;;;;;4956797;29;20502;-61
2023/10/10 16:37:16;;;;;;;13.63;5.80;;;;;;;;;;4956968;29;20430;-61
2023/10/10 16:39:45;;;;;;;14.00;6.33;;;;;;;;;;4957187;28;20415;-61
2023/10/10 16:42:12;;;;;;;13.80;6.53;;;;;;;;;;4957276;29;20472;-61
2023/10/10 16:44:38;;;;;;;20.20;6.40;;;;;;;;;;4971536;28;20455;-61
2023/10/10 16:47:16;;;;;;;25.00;6.50;;;;;;;;;;4956726;29;20426;-62
2023/10/10 16:49:42;;;;;;;24.03;5.87;;;;;;;;;;4956648;28;20472;-61
2023/10/10 16:52:08;;;;;;;16.57;5.90;;;;;;;;;;4956413;28;20899;-62
2023/10/10 16:54:34;;;;;;;7.23;5.33;;;;;;;;;;4971465;28;20446;-61
2023/10/10 16:57:00;;;;;;;21.50;5.53;;;;;;;;;;4956540;29;20476;-61
2023/10/10 16:59:26;;;;;;;20.93;6.30;;;;;;;;;;4956022;29;20447;-61
2023/10/10 17:01:52;;;;;;;13.67;6.30;;;;;;;;;;4956597;29;20508;-61
2023/10/10 17:04:18;;;;;;;13.47;6.00;;;;;;;;;;4971205;28;20817;-61
2023/10/10 17:06:48;;;;;;;14.00;6.03;;;;;;;;;;4971182;28;20867;-62
2023/10/10 17:09:14;;;;;;;14.33;6.03;;;;;;;;;;4971030;28;20470;-62
2023/10/10 17:11:40;;;;;;;23.47;7.53;;;;;;;;;;4956319;29;20510;-61
2023/10/10 17:14:06;;;;;;;19.40;6.33;;;;;;;;;;4956016;29;20569;-61
2023/10/10 17:16:33;;;;;;;26.03;13.27;;;;;;;;;;4955752;29;20430;-62
2023/10/10 17:19:00;;;;;;;16.17;7.90;;;;;;;;;;4956396;29;20486;-61
2023/10/10 17:21:27;;;;;;;11.37;6.20;;;;;;;;;;4955891;29;20452;-62
2023/10/10 17:23:56;;;;;;;20.93;6.87;;;;;;;;;;4956041;28;20531;-61
2023/10/10 17:26:23;;;;;;;19.33;6.63;;;;;;;;;;4955612;28;20439;-61
2023/10/10 17:28:50;;;;;;;19.20;7.10;;;;;;;;;;4955737;28;20506;-61
2023/10/10 17:31:19;;;;;;;16.20;5.73;;;;;;;;;;4955664;29;20927;-62
2023/10/10 17:33:50;;;;;;;19.93;7.20;;;;;;;;;;4955307;28;20573;-62
2023/10/10 17:36:16;;;;;;;20.73;7.20;;;;;;;;;;4955781;28;20501;-60
2023/10/10 17:38:43;;;;;;;19.23;6.60;;;;;;;;;;4955377;29;20449;-62
2023/10/10 17:41:09;;;;;;;15.90;6.83;;;;;;;;;;4955676;29;20464;-60
2023/10/10 17:43:36;;;;;;;18.47;6.50;;;;;;;;;;4954512;29;20897;-62
2023/10/10 17:46:04;;;;;;;87.90;61.00;;;;;;;;;;4955195;28;20425;-62
2023/10/10 17:48:30;;;;;;;32.43;17.03;;;;;;;;;;4955448;29;20430;-61
2023/10/10 17:51:01;;;;;;;20.53;7.27;;;;;;;;;;4955506;29;20425;-62
2023/10/10 17:53:27;;;;;;;19.23;6.20;;;;;;;;;;4955656;28;20987;-61
2023/10/10 17:55:53;;;;;;;14.20;6.20;;;;;;;;;;4955146;29;20430;-61
2023/10/10 17:58:21;;;;;;;16.93;6.30;;;;;;;;;;4955495;29;20484;-62